Time;durP1;ratioP1;P1;durP2;ratioP2;P2;SDS_P1;SDS_P2;PMS_P1;PMS_P2;Temp;Humidity;BMP_temperature;BMP_pressure;BME280_temperature;BME280_humidity;BME280_pressure;Samples;Min_cycle;Max_cycle;Signal;HPM_P1;HPM_P2
2023/12/15 00:00:18;;;;;;;1.30;1.23;;;5.10;99.90;;;;;;5016120;28;20045;-72
2023/12/15 00:02:45;;;;;;;0.80;0.80;;;5.10;99.90;;;;;;5021207;28;20505;-72
2023/12/15 00:05:11;;;;;;;1.77;0.93;;;5.10;99.90;;;;;;5009845;28;20450;-72
2023/12/15 00:07:36;;;;;;;1.67;1.33;;;5.10;99.90;;;;;;5016169;28;20045;-72
2023/12/15 00:10:03;;;;;;;1.52;1.48;;;5.10;99.90;;;;;;5015559;28;20094;-72
2023/12/15 00:12:28;;;;;;;3.17;2.50;;;5.10;99.90;;;;;;5021361;28;20037;-72
2023/12/15 00:14:54;;;;;;;1.35;1.25;;;5.10;99.90;;;;;;5013686;28;20104;-72
2023/12/15 00:17:19;;;;;;;3.42;1.70;;;5.20;99.90;;;;;;5015906;28;20403;-71
2023/12/15 00:19:45;;;;;;;2.67;1.80;;;5.20;99.90;;;;;;5025904;28;20077;-72
2023/12/15 00:22:11;;;;;;;2.47;1.52;;;5.20;99.90;;;;;;5016556;28;20399;-72
2023/12/15 00:24:37;;;;;;;1.33;1.27;;;5.20;99.90;;;;;;5021220;28;20117;-72
2023/12/15 00:27:02;;;;;;;3.33;1.45;;;5.20;99.90;;;;;;5017602;28;20053;-72
2023/12/15 00:29:28;;;;;;;1.42;1.30;;;5.30;99.90;;;;;;5021072;28;20053;-72
2023/12/15 00:31:54;;;;;;;5.32;2.00;;;5.20;99.90;;;;;;5020987;28;20631;-72
2023/12/15 00:34:19;;;;;;;1.05;1.02;;;5.30;99.90;;;;;;5017898;28;20046;-72
2023/12/15 00:36:45;;;;;;;2.55;0.70;;;5.30;99.90;;;;;;5025873;28;20037;-72
2023/12/15 00:39:11;;;;;;;1.50;1.40;;;5.30;99.90;;;;;;5015934;28;20041;-72
2023/12/15 00:41:36;;;;;;;0.93;0.93;;;5.30;99.90;;;;;;5020050;28;20096;-72
2023/12/15 00:44:03;;;;;;;2.50;2.25;;;5.30;99.90;;;;;;5022243;28;20050;-72
2023/12/15 00:46:29;;;;;;;3.95;3.08;;;5.30;99.90;;;;;;5028623;28;20099;-72
2023/12/15 00:48:54;;;;;;;1.17;1.10;;;5.40;99.90;;;;;;5027172;28;20037;-72
2023/12/15 00:51:20;;;;;;;2.55;2.30;;;5.40;99.90;;;;;;5029679;28;20061;-72
2023/12/15 00:53:46;;;;;;;4.32;1.95;;;5.40;99.90;;;;;;5025419;28;20043;-72
2023/12/15 00:56:11;;;;;;;1.42;1.33;;;5.40;99.90;;;;;;5022779;28;20041;-72
2023/12/15 00:58:37;;;;;;;2.60;1.60;;;5.40;99.90;;;;;;5027513;28;20049;-72
2023/12/15 01:01:03;;;;;;;2.40;2.10;;;5.40;99.90;;;;;;5019691;28;20052;-72
2023/12/15 01:03:30;;;;;;;0.80;0.77;;;5.50;99.90;;;;;;5021953;28;20050;-74
2023/12/15 01:05:56;;;;;;;1.27;1.17;;;5.50;99.90;;;;;;5022190;28;20176;-72
2023/12/15 01:08:22;;;;;;;2.78;1.98;;;5.50;99.90;;;;;;5027185;28;20045;-72
2023/12/15 01:10:48;;;;;;;3.15;1.63;;;5.50;99.90;;;;;;5025739;28;20049;-72
2023/12/15 01:13:14;;;;;;;1.42;1.33;;;5.50;99.90;;;;;;5025344;28;20061;-72
2023/12/15 01:15:39;;;;;;;3.78;2.30;;;5.50;99.90;;;;;;5027029;28;20566;-72
2023/12/15 01:18:05;;;;;;;2.42;2.20;;;5.60;99.90;;;;;;5022151;28;20042;-72
2023/12/15 01:20:31;;;;;;;1.73;1.38;;;5.60;99.90;;;;;;5026129;28;20529;-72
2023/12/15 01:22:56;;;;;;;2.00;1.45;;;5.60;99.90;;;;;;5016072;28;20041;-72
2023/12/15 01:25:22;;;;;;;1.23;1.20;;;5.60;99.90;;;;;;5014379;28;20057;-72
2023/12/15 01:27:47;;;;;;;1.30;0.93;;;5.60;99.90;;;;;;5025222;28;20076;-72
2023/12/15 01:30:13;;;;;;;3.00;1.35;;;5.60;99.90;;;;;;5021451;28;20060;-72
2023/12/15 01:32:39;;;;;;;2.13;2.03;;;5.60;99.90;;;;;;5021092;28;20133;-72
2023/12/15 01:35:05;;;;;;;3.47;1.42;;;5.70;99.90;;;;;;5015063;28;20450;-73
2023/12/15 01:37:31;;;;;;;1.77;1.40;;;5.70;99.90;;;;;;5016321;28;20091;-72
2023/12/15 01:39:57;;;;;;;1.23;1.23;;;5.70;99.90;;;;;;5024805;28;20037;-72
2023/12/15 01:42:22;;;;;;;2.95;2.65;;;5.70;99.90;;;;;;5016087;28;20518;-72
2023/12/15 01:44:48;;;;;;;2.67;2.47;;;5.80;99.90;;;;;;5017763;28;20523;-72
2023/12/15 01:47:17;;;;;;;1.08;0.98;;;5.80;99.90;;;;;;5022902;28;20138;-72
2023/12/15 01:49:45;;;;;;;2.15;1.80;;;5.80;99.90;;;;;;5024452;28;20562;-73
2023/12/15 01:52:10;;;;;;;2.85;2.65;;;5.80;99.90;;;;;;5025445;28;20521;-72
2023/12/15 01:54:36;;;;;;;1.88;1.77;;;5.80;99.90;;;;;;5016674;28;20042;-72
2023/12/15 01:57:02;;;;;;;1.05;1.05;;;5.80;99.90;;;;;;5028989;28;20045;-72
2023/12/15 01:59:43;;;;;;;1.95;1.58;;;5.90;99.90;;;;;;5020851;28;20041;-72
2023/12/15 02:02:09;;;;;;;1.85;1.75;;;5.90;99.90;;;;;;5015542;28;20076;-72
2023/12/15 02:04:35;;;;;;;1.73;1.58;;;5.90;99.90;;;;;;5020633;28;20092;-72
2023/12/15 02:07:01;;;;;;;1.65;1.00;;;5.90;99.90;;;;;;5015793;28;20069;-72
2023/12/15 02:09:26;;;;;;;2.20;1.15;;;5.90;99.90;;;;;;5017380;28;20068;-72
2023/12/15 02:11:52;;;;;;;1.60;1.50;;;5.90;99.90;;;;;;5011424;28;20069;-72
2023/12/15 02:14:17;;;;;;;2.30;1.83;;;5.90;99.90;;;;;;5018141;28;20068;-72
2023/12/15 02:16:43;;;;;;;1.95;1.17;;;5.90;99.90;;;;;;5011200;28;20057;-72
2023/12/15 02:19:09;;;;;;;1.42;1.33;;;6.00;99.90;;;;;;5030820;28;20060;-72
2023/12/15 02:21:35;;;;;;;1.45;1.08;;;5.90;99.90;;;;;;5024747;28;21214;-72
2023/12/15 02:24:01;;;;;;;2.95;2.17;;;6.00;99.90;;;;;;5015526;28;20048;-72
2023/12/15 02:26:26;;;;;;;0.82;0.82;;;6.00;99.90;;;;;;5015778;28;20057;-72
2023/12/15 02:28:52;;;;;;;1.02;1.02;;;6.00;99.90;;;;;;5019936;28;20041;-72
2023/12/15 02:31:20;;;;;;;3.50;2.72;;;6.00;99.90;;;;;;5013051;28;20088;-72
2023/12/15 02:33:46;;;;;;;1.50;1.50;;;6.00;99.90;;;;;;5020493;28;20135;-72
2023/12/15 02:36:18;;;;;;;0.50;0.50;;;6.00;99.90;;;;;;5014147;28;20049;-72
2023/12/15 02:38:44;;;;;;;0.93;0.85;;;6.00;99.90;;;;;;5025092;28;20334;-72
2023/12/15 02:41:13;;;;;;;1.48;1.27;;;6.00;99.90;;;;;;5025414;28;20414;-72
2023/12/15 02:43:39;;;;;;;2.88;1.17;;;6.10;99.90;;;;;;5016169;28;20041;-72
2023/12/15 02:46:06;;;;;;;2.35;1.58;;;6.10;99.90;;;;;;5025001;28;20050;-72
2023/12/15 02:48:32;;;;;;;1.65;1.25;;;6.00;99.90;;;;;;5018156;28;20064;-72
2023/12/15 02:50:57;;;;;;;1.88;1.77;;;6.10;99.90;;;;;;5024049;28;20053;-72
2023/12/15 02:53:23;;;;;;;2.20;1.70;;;6.10;99.90;;;;;;5018621;28;20054;-72
2023/12/15 02:55:49;;;;;;;3.10;2.17;;;6.10;99.90;;;;;;5019469;28;20052;-72
2023/12/15 02:58:16;;;;;;;1.13;1.13;;;6.10;99.90;;;;;;5016192;28;20064;-72
2023/12/15 03:00:41;;;;;;;1.40;1.38;;;6.10;99.90;;;;;;5012783;28;20053;-72
2023/12/15 03:03:07;;;;;;;2.10;1.33;;;6.10;99.90;;;;;;5016555;28;20562;-72
2023/12/15 03:05:32;;;;;;;0.52;0.52;;;6.10;99.90;;;;;;5027529;28;20414;-72
2023/12/15 03:07:58;;;;;;;0.70;0.70;;;6.20;99.90;;;;;;5023107;28;20059;-72
2023/12/15 03:10:24;;;;;;;0.73;0.73;;;6.20;99.90;;;;;;5016910;28;20500;-72
2023/12/15 03:12:49;;;;;;;0.90;0.88;;;6.20;99.90;;;;;;5016506;28;20041;-71
2023/12/15 03:15:15;;;;;;;2.00;1.83;;;6.20;99.90;;;;;;5016508;28;20201;-72
2023/12/15 03:17:40;;;;;;;0.93;0.93;;;6.20;99.90;;;;;;5020480;28;20053;-71
2023/12/15 03:20:07;;;;;;;2.38;1.45;;;6.20;99.90;;;;;;5016658;28;20403;-71
2023/12/15 03:22:33;;;;;;;1.23;1.10;;;6.20;99.90;;;;;;5020025;28;20045;-72
2023/12/15 03:24:59;;;;;;;9.32;1.30;;;6.20;99.90;;;;;;5026118;28;20056;-72
2023/12/15 03:27:24;;;;;;;1.92;1.30;;;6.20;99.90;;;;;;5009070;28;20049;-72
2023/12/15 03:29:50;;;;;;;2.08;1.95;;;6.20;99.90;;;;;;5016429;28;20132;-72
2023/12/15 03:32:16;;;;;;;2.10;1.85;;;6.20;99.90;;;;;;5016227;28;20055;-71
2023/12/15 03:34:41;;;;;;;0.73;0.73;;;6.30;99.90;;;;;;5018340;28;20049;-71
2023/12/15 03:37:08;;;;;;;0.43;0.43;;;6.30;99.90;;;;;;5012285;28;20125;-71
2023/12/15 03:39:35;;;;;;;4.15;1.58;;;6.30;99.90;;;;;;5026375;28;20061;-71
2023/12/15 03:42:06;;;;;;;0.70;0.70;;;6.30;99.90;;;;;;5010449;28;20056;-72
2023/12/15 03:44:32;;;;;;;0.75;0.75;;;6.30;99.90;;;;;;5013093;28;20052;-71
2023/12/15 03:46:57;;;;;;;2.13;1.55;;;6.30;99.90;;;;;;5015636;28;20115;-72
2023/12/15 03:49:23;;;;;;;1.45;1.35;;;6.40;99.90;;;;;;5006218;28;20443;-72
2023/12/15 03:51:49;;;;;;;2.67;2.08;;;6.30;99.90;;;;;;5026841;28;20045;-72
2023/12/15 03:54:14;;;;;;;1.20;0.85;;;6.40;99.90;;;;;;5017370;28;20040;-71
2023/12/15 03:56:40;;;;;;;2.42;2.30;;;6.30;99.90;;;;;;5016024;28;20058;-71
2023/12/15 03:59:06;;;;;;;2.40;1.23;;;6.40;99.90;;;;;;5013490;28;20042;-72
2023/12/15 04:01:31;;;;;;;1.20;1.20;;;6.30;99.90;;;;;;5013633;28;20331;-72
2023/12/15 04:04:00;;;;;;;1.75;1.30;;;6.30;99.90;;;;;;5009792;28;20045;-71
2023/12/15 04:06:26;;;;;;;2.15;1.95;;;6.30;99.90;;;;;;5018407;28;20045;-72
2023/12/15 04:08:51;;;;;;;1.98;1.83;;;6.30;99.90;;;;;;5023119;28;20045;-72
2023/12/15 04:11:17;;;;;;;3.83;1.67;;;6.30;99.90;;;;;;5019492;28;20053;-72
2023/12/15 04:13:43;;;;;;;1.25;1.20;;;6.30;99.90;;;;;;5019861;28;20056;-72
2023/12/15 04:16:08;;;;;;;0.98;0.98;;;6.30;99.90;;;;;;5021761;28;20046;-72
2023/12/15 04:18:34;;;;;;;1.63;1.42;;;6.40;99.90;;;;;;5018107;28;20060;-71
2023/12/15 04:21:03;;;;;;;1.92;1.27;;;6.40;99.90;;;;;;5014649;28;20045;-71
2023/12/15 04:23:29;;;;;;;1.58;1.48;;;6.40;99.90;;;;;;5014380;28;20045;-72
2023/12/15 04:25:54;;;;;;;2.95;2.72;;;6.40;99.90;;;;;;5019111;28;20127;-72
2023/12/15 04:28:20;;;;;;;1.13;1.13;;;6.40;99.90;;;;;;5006898;28;20089;-72
2023/12/15 04:30:45;;;;;;;3.38;1.90;;;6.40;99.90;;;;;;5000830;28;20058;-72
2023/12/15 04:33:11;;;;;;;2.58;2.38;;;6.40;99.90;;;;;;5009744;28;20045;-72
2023/12/15 04:35:37;;;;;;;1.30;0.90;;;6.40;99.90;;;;;;4996456;28;20041;-72
2023/12/15 04:38:03;;;;;;;1.73;1.63;;;6.40;99.90;;;;;;5020994;28;20669;-72
2023/12/15 04:40:28;;;;;;;7.35;3.00;;;6.40;99.90;;;;;;5017727;28;20045;-72
2023/12/15 04:42:54;;;;;;;1.10;1.10;;;6.40;99.90;;;;;;5001618;28;20049;-72
2023/12/15 04:45:19;;;;;;;3.05;2.85;;;6.40;99.90;;;;;;5018989;28;20049;-72
2023/12/15 04:47:45;;;;;;;1.67;1.48;;;6.40;99.90;;;;;;5017446;28;20056;-72
2023/12/15 04:50:10;;;;;;;2.25;1.85;;;6.40;99.90;;;;;;5020123;28;20049;-73
2023/12/15 04:52:36;;;;;;;1.83;1.45;;;6.40;99.90;;;;;;5010999;28;20403;-72
2023/12/15 04:55:02;;;;;;;1.60;1.52;;;6.40;99.90;;;;;;5017199;28;20538;-72
2023/12/15 04:57:27;;;;;;;2.17;1.98;;;6.40;99.90;;;;;;5023395;28;20052;-72
2023/12/15 04:59:53;;;;;;;2.60;1.65;;;6.40;99.90;;;;;;5022092;28;20120;-72
2023/12/15 05:02:19;;;;;;;11.38;2.10;;;6.30;99.90;;;;;;5027062;28;20080;-72
2023/12/15 05:04:44;;;;;;;1.98;1.35;;;6.40;99.90;;;;;;5018230;28;20042;-72
2023/12/15 05:07:10;;;;;;;1.20;1.13;;;6.40;99.90;;;;;;5016661;28;20584;-72
2023/12/15 05:09:36;;;;;;;2.25;2.08;;;6.40;99.90;;;;;;5020700;28;20041;-72
2023/12/15 05:12:03;;;;;;;2.22;1.92;;;6.40;99.90;;;;;;5023872;28;20083;-72
2023/12/15 05:14:28;;;;;;;3.33;1.90;;;6.40;99.90;;;;;;5020870;28;20130;-72
2023/12/15 05:16:54;;;;;;;0.70;0.70;;;6.40;99.90;;;;;;5014821;28;20117;-72
2023/12/15 05:19:19;;;;;;;1.33;1.23;;;6.40;99.90;;;;;;5019594;28;20045;-72
2023/12/15 05:21:46;;;;;;;2.90;2.08;;;6.40;99.90;;;;;;5012602;28;20057;-72
2023/12/15 05:24:12;;;;;;;2.90;1.13;;;6.40;99.90;;;;;;5026793;28;20090;-72
2023/12/15 05:26:38;;;;;;;1.15;1.05;;;6.40;99.90;;;;;;5018617;28;20065;-72
2023/12/15 05:29:04;;;;;;;2.05;1.70;;;6.40;99.90;;;;;;5021598;28;20106;-72
2023/12/15 05:31:30;;;;;;;1.77;1.67;;;6.40;99.90;;;;;;5015547;28;20077;-72
2023/12/15 05:33:55;;;;;;;0.68;0.68;;;6.30;99.90;;;;;;5017132;28;20084;-72
2023/12/15 05:36:21;;;;;;;1.73;1.48;;;6.30;99.90;;;;;;5021267;28;20107;-72
2023/12/15 05:38:50;;;;;;;0.77;0.77;;;6.30;99.90;;;;;;5016226;28;20041;-72
2023/12/15 05:41:15;;;;;;;0.60;0.60;;;6.30;99.90;;;;;;5025947;28;20052;-72
2023/12/15 05:43:41;;;;;;;1.45;1.38;;;6.30;99.90;;;;;;5027766;28;20414;-72
2023/12/15 05:46:07;;;;;;;0.98;0.98;;;6.30;99.90;;;;;;5024010;28;20052;-72
2023/12/15 05:48:33;;;;;;;0.60;0.60;;;6.30;99.90;;;;;;5025828;28;20085;-72
2023/12/15 05:50:59;;;;;;;0.93;0.93;;;6.30;99.90;;;;;;5022372;28;20088;-72
2023/12/15 05:53:25;;;;;;;1.40;1.10;;;6.30;99.90;;;;;;5020349;28;20045;-72
2023/12/15 05:55:52;;;;;;;1.65;1.40;;;6.30;99.90;;;;;;5026947;28;20047;-72
2023/12/15 05:58:17;;;;;;;0.82;0.82;;;6.30;99.90;;;;;;5027914;28;20065;-72
2023/12/15 06:00:43;;;;;;;1.60;0.65;;;6.30;99.90;;;;;;5026715;28;20052;-72
2023/12/15 06:03:09;;;;;;;0.50;0.50;;;6.20;99.90;;;;;;5019308;28;20091;-72
2023/12/15 06:05:34;;;;;;;2.78;0.88;;;6.20;99.90;;;;;;5016303;28;20132;-72
2023/12/15 06:08:01;;;;;;;5.47;0.93;;;6.20;99.90;;;;;;5018503;28;20482;-72
2023/12/15 06:10:27;;;;;;;0.88;0.88;;;6.20;99.90;;;;;;5018124;28;20056;-72
2023/12/15 06:12:53;;;;;;;1.80;1.63;;;6.20;99.90;;;;;;5021060;28;20502;-72
2023/12/15 06:15:18;;;;;;;1.73;1.23;;;6.20;99.90;;;;;;5013467;28;20081;-72
2023/12/15 06:17:44;;;;;;;1.33;1.10;;;6.20;99.90;;;;;;5021968;28;20112;-72
2023/12/15 06:20:12;;;;;;;4.47;1.42;;;6.10;99.90;;;;;;5019848;28;20044;-72
2023/12/15 06:22:38;;;;;;;;;;;6.10;99.90;;;;;;5027788;28;20037;-72
2023/12/15 06:25:04;;;;;;;0.55;0.55;;;6.10;99.90;;;;;;5013337;28;19949;-72
2023/12/15 06:27:33;;;;;;;1.65;1.17;;;6.10;99.90;;;;;;5013666;28;20046;-71
2023/12/15 06:29:59;;;;;;;1.30;1.05;;;6.10;99.90;;;;;;5024311;28;20071;-72
2023/12/15 06:32:25;;;;;;;1.00;1.00;;;6.00;99.90;;;;;;5015064;28;20835;-72
2023/12/15 06:34:51;;;;;;;0.63;0.63;;;6.00;99.90;;;;;;5018161;28;20125;-72
2023/12/15 06:37:16;;;;;;;0.90;0.90;;;5.90;99.90;;;;;;5018108;28;20573;-72
2023/12/15 06:39:44;;;;;;;2.15;2.05;;;5.90;99.90;;;;;;5019732;28;20415;-72
2023/12/15 06:42:09;;;;;;;1.05;1.05;;;6.00;99.90;;;;;;5015980;28;20550;-72
2023/12/15 06:44:35;;;;;;;1.02;1.02;;;5.90;99.90;;;;;;5009496;28;20057;-72
2023/12/15 06:47:01;;;;;;;0.90;0.90;;;6.00;99.90;;;;;;5010066;28;20045;-72
2023/12/15 06:49:32;;;;;;;3.72;1.80;;;6.00;99.90;;;;;;5013246;28;20038;-72
2023/12/15 06:51:59;;;;;;;1.35;1.35;;;6.00;99.90;;;;;;5013580;28;20054;-72
2023/12/15 06:54:25;;;;;;;2.05;1.10;;;6.00;99.90;;;;;;5013642;28;20046;-72
2023/12/15 06:56:51;;;;;;;1.48;1.08;;;6.00;99.90;;;;;;5022023;28;20056;-72
2023/12/15 06:59:17;;;;;;;0.85;0.85;;;6.00;99.90;;;;;;5011906;28;20045;-72
2023/12/15 07:01:42;;;;;;;1.58;1.48;;;6.00;99.90;;;;;;5016791;28;20114;-72
2023/12/15 07:04:08;;;;;;;0.75;0.73;;;6.00;99.90;;;;;;5020243;28;20060;-72
2023/12/15 07:06:34;;;;;;;0.50;0.50;;;6.00;99.90;;;;;;5015366;28;20053;-72
2023/12/15 07:08:59;;;;;;;0.85;0.85;;;5.90;99.90;;;;;;5018144;28;20061;-72
2023/12/15 07:11:25;;;;;;;1.35;1.25;;;5.90;99.90;;;;;;5016492;28;20545;-72
2023/12/15 07:13:51;;;;;;;1.45;1.35;;;5.90;99.90;;;;;;5011482;28;20089;-72
2023/12/15 07:16:16;;;;;;;0.70;0.70;;;5.90;99.90;;;;;;5019340;28;20046;-72
2023/12/15 07:18:42;;;;;;;0.68;0.68;;;5.90;99.90;;;;;;5023307;28;20488;-72
2023/12/15 07:21:08;;;;;;;1.20;0.98;;;5.90;99.90;;;;;;5015445;28;20053;-72
2023/12/15 07:23:35;;;;;;;2.67;1.30;;;5.90;99.90;;;;;;5006952;28;20592;-72
2023/12/15 07:26:01;;;;;;;2.70;1.15;;;5.90;99.90;;;;;;5020178;28;20588;-72
2023/12/15 07:28:26;;;;;;;1.95;1.60;;;5.90;99.90;;;;;;5010306;28;20050;-72
2023/12/15 07:30:52;;;;;;;1.80;0.90;;;5.90;99.90;;;;;;5018725;28;20075;-72
2023/12/15 07:33:18;;;;;;;2.00;1.90;;;5.90;99.90;;;;;;5015444;28;20041;-72
2023/12/15 07:35:43;;;;;;;0.77;0.77;;;5.90;99.90;;;;;;5013068;28;20042;-72
2023/12/15 07:38:09;;;;;;;1.88;1.77;;;5.90;99.90;;;;;;5015538;28;20124;-72
2023/12/15 07:40:35;;;;;;;0.70;0.70;;;5.90;99.90;;;;;;5018209;28;20422;-72
2023/12/15 07:43:01;;;;;;;2.65;1.52;;;5.90;99.90;;;;;;5014583;28;20049;-72
2023/12/15 07:45:27;;;;;;;10.55;2.75;;;5.90;99.90;;;;;;5023554;28;20050;-72
2023/12/15 07:47:54;;;;;;;2.08;1.98;;;5.90;99.90;;;;;;5015027;28;20037;-72
2023/12/15 07:50:20;;;;;;;3.42;1.67;;;5.80;99.90;;;;;;5026090;28;20056;-72
2023/12/15 07:52:46;;;;;;;1.98;1.40;;;5.80;99.90;;;;;;5016473;28;20049;-72
2023/12/15 07:55:12;;;;;;;1.75;0.57;;;5.80;99.90;;;;;;5021873;28;20042;-72
2023/12/15 07:57:39;;;;;;;1.08;0.80;;;5.80;99.90;;;;;;5023109;28;20049;-72
2023/12/15 08:00:09;;;;;;;2.22;0.65;;;5.80;99.90;;;;;;5021952;28;20056;-72
2023/12/15 08:02:35;;;;;;;4.68;2.28;;;5.90;99.90;;;;;;5012196;28;20050;-72
2023/12/15 08:05:00;;;;;;;4.32;1.52;;;5.90;99.90;;;;;;5018089;28;20049;-72
2023/12/15 08:07:26;;;;;;;1.42;1.33;;;5.90;99.90;;;;;;5018801;28;20041;-72
2023/12/15 08:09:51;;;;;;;1.15;1.15;;;6.00;99.90;;;;;;5016331;28;20053;-72
2023/12/15 08:12:17;;;;;;;1.17;1.00;;;6.00;99.90;;;;;;5014314;28;20053;-72
2023/12/15 08:14:42;;;;;;;0.50;0.50;;;6.00;99.90;;;;;;5013629;28;20042;-72
2023/12/15 08:17:08;;;;;;;1.00;1.00;;;6.00;99.90;;;;;;5011767;28;20115;-72
2023/12/15 08:19:34;;;;;;;1.27;1.17;;;6.00;99.90;;;;;;5019032;28;20049;-72
2023/12/15 08:21:59;;;;;;;0.52;0.52;;;6.00;99.90;;;;;;5015362;28;20056;-72
2023/12/15 08:24:26;;;;;;;0.73;0.73;;;6.10;99.90;;;;;;5016186;28;20095;-72
2023/12/15 08:26:53;;;;;;;1.00;1.00;;;6.10;99.90;;;;;;5022126;28;20042;-72
2023/12/15 08:29:20;;;;;;;1.60;1.50;;;6.00;99.90;;;;;;5013818;28;20121;-72
2023/12/15 08:31:45;;;;;;;0.77;0.63;;;6.10;99.90;;;;;;5015077;28;20050;-72
2023/12/15 08:34:11;;;;;;;0.98;0.98;;;6.10;99.90;;;;;;5017294;28;20045;-72
2023/12/15 08:36:36;;;;;;;1.08;1.08;;;6.10;99.90;;;;;;5020427;28;20048;-72
2023/12/15 08:39:02;;;;;;;1.65;1.45;;;6.10;99.90;;;;;;5019592;28;20049;-72
2023/12/15 08:41:28;;;;;;;0.70;0.70;;;6.10;99.90;;;;;;5020990;28;20064;-72
2023/12/15 08:43:54;;;;;;;0.98;0.98;;;6.20;99.90;;;;;;5025499;28;20083;-72
2023/12/15 08:46:20;;;;;;;0.73;0.73;;;6.20;99.90;;;;;;5016123;28;20049;-72
2023/12/15 08:48:45;;;;;;;0.70;0.70;;;6.20;99.90;;;;;;5019701;28;20045;-72
2023/12/15 08:51:11;;;;;;;1.95;1.55;;;6.20;99.90;;;;;;5031416;28;20045;-72
2023/12/15 08:53:37;;;;;;;0.80;0.68;;;6.20;99.90;;;;;;5016931;28;20037;-72
2023/12/15 08:56:02;;;;;;;4.03;2.17;;;6.20;99.90;;;;;;5020755;28;20479;-72
2023/12/15 08:58:28;;;;;;;1.05;0.85;;;6.30;99.90;;;;;;5021942;28;20051;-72
2023/12/15 09:00:54;;;;;;;0.60;0.60;;;6.20;99.90;;;;;;5018527;28;20390;-72
2023/12/15 09:03:20;;;;;;;1.67;1.15;;;6.20;99.90;;;;;;5020270;28;20049;-72
2023/12/15 09:05:46;;;;;;;2.13;2.03;;;6.30;99.90;;;;;;5015310;28;20037;-72
2023/12/15 09:08:12;;;;;;;3.75;1.13;;;6.30;99.90;;;;;;5024625;28;20757;-72
2023/12/15 09:10:43;;;;;;;1.05;1.05;;;6.30;99.90;;;;;;5018933;28;20132;-72
2023/12/15 09:13:12;;;;;;;0.50;0.50;;;6.30;99.90;;;;;;5021692;28;20049;-72
2023/12/15 09:15:37;;;;;;;1.08;1.08;;;6.40;99.90;;;;;;5017471;28;20096;-72
2023/12/15 09:18:03;;;;;;;0.93;0.93;;;6.40;99.90;;;;;;5026297;28;20073;-73
2023/12/15 09:20:29;;;;;;;1.10;0.60;;;6.40;99.90;;;;;;5015823;28;20048;-73
2023/12/15 09:22:55;;;;;;;1.77;0.98;;;6.40;99.90;;;;;;5028072;28;20135;-72
2023/12/15 09:25:20;;;;;;;1.02;1.02;;;6.50;99.90;;;;;;5027654;28;20119;-73
2023/12/15 09:27:46;;;;;;;1.38;1.38;;;6.50;99.90;;;;;;5025227;28;21495;-72
2023/12/15 09:30:12;;;;;;;2.05;1.30;;;6.60;99.90;;;;;;5024800;28;20164;-72
2023/12/15 09:32:37;;;;;;;0.95;0.82;;;6.60;99.90;;;;;;5016237;28;20056;-72
2023/12/15 09:35:03;;;;;;;0.50;0.50;;;6.70;99.90;;;;;;5014907;28;20461;-72
2023/12/15 09:37:30;;;;;;;1.75;0.98;;;6.70;99.90;;;;;;5017263;28;20048;-72
2023/12/15 09:39:55;;;;;;;0.60;0.60;;;6.70;99.90;;;;;;5015562;28;20069;-72
2023/12/15 09:42:23;;;;;;;0.50;0.50;;;6.80;99.90;;;;;;5022368;28;20042;-72
2023/12/15 09:44:50;;;;;;;1.50;1.40;;;6.80;99.90;;;;;;5017501;28;20555;-72
2023/12/15 09:47:21;;;;;;;0.98;0.98;;;6.90;99.90;;;;;;5020217;28;20115;-72
2023/12/15 09:49:52;;;;;;;0.60;0.60;;;6.90;99.90;;;;;;5021383;28;20049;-72
2023/12/15 09:52:20;;;;;;;1.05;0.98;;;6.90;99.90;;;;;;5022669;28;20088;-72
2023/12/15 09:54:48;;;;;;;1.95;0.90;;;6.90;99.90;;;;;;5019322;28;20053;-72
2023/12/15 09:57:14;;;;;;;0.80;0.80;;;7.00;99.90;;;;;;5020957;28;20053;-72
2023/12/15 09:59:42;;;;;;;1.75;1.15;;;7.00;99.90;;;;;;5018809;28;20402;-72
2023/12/15 10:02:08;;;;;;;;;;;7.00;99.90;;;;;;5025524;28;20116;-72
2023/12/15 10:04:33;;;;;;;1.52;1.48;;;7.10;99.90;;;;;;5022297;28;19931;-72
2023/12/15 10:06:59;;;;;;;0.80;0.80;;;7.10;99.90;;;;;;5022854;28;20065;-72
2023/12/15 10:09:24;;;;;;;0.80;0.80;;;7.20;99.90;;;;;;5021310;28;20045;-72
2023/12/15 10:11:50;;;;;;;1.45;1.35;;;7.20;99.90;;;;;;5011437;28;20045;-72
2023/12/15 10:14:19;;;;;;;2.53;0.90;;;7.20;99.90;;;;;;5020535;28;20041;-72
2023/12/15 10:16:46;;;;;;;0.60;0.60;;;7.20;99.90;;;;;;5016195;28;20120;-72
2023/12/15 10:19:11;;;;;;;0.50;0.50;;;7.30;99.90;;;;;;5018162;28;20049;-72
2023/12/15 10:21:37;;;;;;;4.03;1.73;;;7.40;99.90;;;;;;5015556;28;20049;-72
2023/12/15 10:24:23;;;;;;;0.80;0.80;;;7.40;99.90;;;;;;5022997;28;20053;-72
2023/12/15 10:26:50;;;;;;;2.05;1.60;;;7.50;99.90;;;;;;5020302;28;20057;-73
2023/12/15 10:29:19;;;;;;;0.88;0.88;;;7.50;99.90;;;;;;5017750;28;20049;-72
2023/12/15 10:31:44;;;;;;;0.50;0.50;;;7.60;99.90;;;;;;5018937;28;20491;-72
2023/12/15 10:34:10;;;;;;;0.60;0.60;;;7.70;99.90;;;;;;5026408;28;20056;-72
2023/12/15 10:36:40;;;;;;;0.98;0.85;;;7.70;99.90;;;;;;5016821;28;20052;-72
2023/12/15 10:39:06;;;;;;;0.50;0.50;;;7.80;99.90;;;;;;5022892;28;20087;-72
2023/12/15 10:41:34;;;;;;;0.52;0.52;;;7.80;99.90;;;;;;5017175;28;20045;-72
2023/12/15 10:44:01;;;;;;;1.13;1.02;;;7.90;99.90;;;;;;5018077;28;20498;-72
2023/12/15 10:46:28;;;;;;;0.60;0.60;;;7.90;99.90;;;;;;5021147;28;20488;-72
2023/12/15 10:48:54;;;;;;;1.00;0.95;;;7.90;99.90;;;;;;5020734;28;20041;-72
2023/12/15 10:51:20;;;;;;;0.40;0.40;;;7.90;99.90;;;;;;5020013;28;20072;-72
2023/12/15 10:53:48;;;;;;;0.70;0.70;;;7.90;99.90;;;;;;5017451;28;20049;-72
2023/12/15 10:56:15;;;;;;;0.50;0.50;;;8.00;99.90;;;;;;5014796;28;20075;-72
2023/12/15 10:58:41;;;;;;;1.40;1.40;;;8.00;99.90;;;;;;5021266;28;20045;-72
2023/12/15 11:01:09;;;;;;;0.88;0.88;;;8.00;99.90;;;;;;5017102;28;20052;-72
2023/12/15 11:03:36;;;;;;;0.80;0.80;;;8.00;99.90;;;;;;5019256;28;20041;-74
2023/12/15 11:06:02;;;;;;;0.63;0.63;;;8.10;99.90;;;;;;5025389;28;20124;-73
2023/12/15 11:08:28;;;;;;;0.40;0.40;;;8.10;99.90;;;;;;5026895;28;20077;-73
2023/12/15 11:10:54;;;;;;;1.85;0.40;;;8.10;99.90;;;;;;5020803;28;20037;-73
2023/12/15 11:13:49;;;;;;;0.65;0.65;;;8.10;99.90;;;;;;5022434;28;20053;-73
2023/12/15 11:16:17;;;;;;;0.60;0.60;;;8.10;99.90;;;;;;5020345;28;20049;-73
2023/12/15 11:18:42;;;;;;;;;;;8.10;99.90;;;;;;5020859;28;20045;-73
2023/12/15 11:21:10;;;;;;;0.50;0.50;;;8.20;99.90;;;;;;5020909;28;19952;-73
2023/12/15 11:23:49;;;;;;;0.40;0.40;;;8.20;99.90;;;;;;5023153;28;20053;-73
2023/12/15 11:26:31;;;;;;;1.05;1.05;;;8.20;99.90;;;;;;5024305;28;20128;-73
2023/12/15 11:29:08;;;;;;;0.50;0.50;;;8.20;99.90;;;;;;5008118;28;20052;-73
2023/12/15 11:31:35;;;;;;;0.70;0.70;;;8.20;99.90;;;;;;5015033;28;20045;-74
2023/12/15 11:34:03;;;;;;;0.60;0.60;;;8.30;99.90;;;;;;5024912;28;20510;-73
2023/12/15 11:36:30;;;;;;;0.65;0.65;;;8.30;99.90;;;;;;5020930;28;20571;-75
2023/12/15 11:38:58;;;;;;;0.93;0.93;;;8.30;99.90;;;;;;5019266;28;20080;-74
2023/12/15 11:41:24;;;;;;;0.50;0.50;;;8.30;99.90;;;;;;5003327;28;20049;-73
2023/12/15 11:43:50;;;;;;;0.60;0.60;;;8.40;99.90;;;;;;5019152;28;20042;-74
2023/12/15 11:46:18;;;;;;;0.85;0.60;;;8.40;99.90;;;;;;5021391;28;20468;-74
2023/12/15 11:48:43;;;;;;;1.40;1.20;;;8.40;99.90;;;;;;5017329;28;20046;-73
2023/12/15 11:51:09;;;;;;;0.50;0.50;;;8.40;99.90;;;;;;5009937;28;20431;-74
2023/12/15 11:53:45;;;;;;;1.15;0.50;;;8.40;99.90;;;;;;5014932;28;20139;-74
2023/12/15 11:56:10;;;;;;;0.63;0.63;;;8.40;99.90;;;;;;5015557;28;20046;-74
2023/12/15 11:58:37;;;;;;;0.47;0.47;;;8.50;99.90;;;;;;5020606;28;20399;-74
2023/12/15 12:01:03;;;;;;;0.52;0.52;;;8.50;99.90;;;;;;5013914;28;20064;-74
2023/12/15 12:03:31;;;;;;;0.60;0.60;;;8.50;99.90;;;;;;5013404;28;20041;-74
2023/12/15 12:05:58;;;;;;;0.80;0.65;;;8.50;99.90;;;;;;5018741;28;20144;-73
2023/12/15 12:08:24;;;;;;;0.80;0.80;;;8.50;99.90;;;;;;5021013;28;20045;-73
2023/12/15 12:10:53;;;;;;;0.50;0.50;;;8.50;99.90;;;;;;5017100;28;20045;-74
2023/12/15 12:13:19;;;;;;;0.55;0.55;;;8.60;99.90;;;;;;5022841;28;20054;-74
2023/12/15 12:15:50;;;;;;;1.42;0.80;;;8.60;99.90;;;;;;5020844;28;20057;-74
2023/12/15 12:18:17;;;;;;;0.85;0.80;;;8.70;99.90;;;;;;5018345;28;20057;-74
2023/12/15 12:20:43;;;;;;;0.50;0.50;;;8.70;99.90;;;;;;5020504;28;20059;-74
2023/12/15 12:23:09;;;;;;;0.45;0.45;;;8.80;99.90;;;;;;5025649;28;20048;-74
2023/12/15 12:25:34;;;;;;;0.60;0.60;;;8.80;99.90;;;;;;5021753;28;20734;-74
2023/12/15 12:28:01;;;;;;;0.40;0.40;;;8.80;99.90;;;;;;5016915;28;20049;-73
2023/12/15 12:30:28;;;;;;;0.50;0.50;;;8.80;99.90;;;;;;5016707;28;20049;-74
2023/12/15 12:32:53;;;;;;;1.67;1.60;;;8.80;99.90;;;;;;5022455;28;20034;-74
2023/12/15 12:35:19;;;;;;;0.40;0.40;;;8.80;99.90;;;;;;5025966;28;20470;-74
2023/12/15 12:37:45;;;;;;;0.63;0.60;;;8.80;99.90;;;;;;5019563;28;20049;-74
2023/12/15 12:40:11;;;;;;;0.40;0.40;;;8.80;99.90;;;;;;5026791;28;20453;-74
2023/12/15 12:42:37;;;;;;;0.75;0.75;;;8.80;99.90;;;;;;5022215;28;20482;-74
2023/12/15 12:45:02;;;;;;;0.40;0.40;;;8.80;99.90;;;;;;5012364;28;20123;-73
2023/12/15 12:47:28;;;;;;;0.75;0.50;;;8.80;99.90;;;;;;5027377;28;20052;-74
2023/12/15 12:49:54;;;;;;;2.58;0.90;;;8.80;99.90;;;;;;5025885;28;20383;-73
2023/12/15 12:52:20;;;;;;;0.50;0.50;;;8.90;99.90;;;;;;5016376;28;20061;-73